sensor_id;sensor_type;location;lat;lon;timestamp;P1;durP1;ratioP1;P2;durP2;ratioP2
44764;SDS011;30484;52.382;5.260;2022-10-26T00:02:01;30.05;;;13.90;;
44764;SDS011;30484;52.382;5.260;2022-10-26T00:04:33;24.08;;;12.63;;
44764;SDS011;30484;52.382;5.260;2022-10-26T00:07:04;24.23;;;14.73;;
44764;SDS011;30484;52.382;5.260;2022-10-26T00:09:41;23.63;;;13.57;;
44764;SDS011;30484;52.382;5.260;2022-10-26T00:12:11;31.27;;;14.57;;
44764;SDS011;30484;52.382;5.260;2022-10-26T00:14:42;24.52;;;13.80;;
44764;SDS011;30484;52.382;5.260;2022-10-26T00:17:14;24.70;;;14.15;;
44764;SDS011;30484;52.382;5.260;2022-10-26T00:19:46;29.88;;;13.30;;
44764;SDS011;30484;52.382;5.260;2022-10-26T00:22:14;27.10;;;12.57;;
44764;SDS011;30484;52.382;5.260;2022-10-26T00:24:44;23.80;;;13.32;;
44764;SDS011;30484;52.382;5.260;2022-10-26T00:27:13;23.00;;;13.02;;
44764;SDS011;30484;52.382;5.260;2022-10-26T00:29:44;28.55;;;13.50;;
44764;SDS011;30484;52.382;5.260;2022-10-26T00:32:13;37.15;;;13.90;;
44764;SDS011;30484;52.382;5.260;2022-10-26T00:34:41;27.75;;;13.98;;
44764;SDS011;30484;52.382;5.260;2022-10-26T00:37:10;32.05;;;13.48;;
44764;SDS011;30484;52.382;5.260;2022-10-26T00:39:38;27.33;;;12.35;;
44764;SDS011;30484;52.382;5.260;2022-10-26T00:42:09;23.48;;;12.27;;
44764;SDS011;30484;52.382;5.260;2022-10-26T00:44:59;23.25;;;11.85;;
44764;SDS011;30484;52.382;5.260;2022-10-26T00:47:36;19.08;;;11.57;;
44764;SDS011;30484;52.382;5.260;2022-10-26T00:52:42;26.65;;;11.80;;
44764;SDS011;30484;52.382;5.260;2022-10-26T00:55:12;24.88;;;12.05;;
44764;SDS011;30484;52.382;5.260;2022-10-26T00:57:47;24.40;;;11.52;;
44764;SDS011;30484;52.382;5.260;2022-10-26T01:00:24;22.88;;;11.75;;
44764;SDS011;30484;52.382;5.260;2022-10-26T01:03:00;21.30;;;11.52;;
44764;SDS011;30484;52.382;5.260;2022-10-26T01:05:33;18.17;;;10.98;;
44764;SDS011;30484;52.382;5.260;2022-10-26T01:08:08;31.52;;;11.18;;
44764;SDS011;30484;52.382;5.260;2022-10-26T01:10:39;29.10;;;11.25;;
44764;SDS011;30484;52.382;5.260;2022-10-26T01:13:09;25.17;;;10.98;;
44764;SDS011;30484;52.382;5.260;2022-10-26T01:15:45;23.05;;;10.25;;
44764;SDS011;30484;52.382;5.260;2022-10-26T01:18:26;22.25;;;10.43;;
44764;SDS011;30484;52.382;5.260;2022-10-26T01:24:30;20.02;;;9.80;;
44764;SDS011;30484;52.382;5.260;2022-10-26T01:27:33;18.77;;;9.52;;
44764;SDS011;30484;52.382;5.260;2022-10-26T01:30:20;32.40;;;9.43;;
44764;SDS011;30484;52.382;5.260;2022-10-26T01:36:00;18.55;;;8.27;;
44764;SDS011;30484;52.382;5.260;2022-10-26T01:38:42;17.48;;;8.43;;
44764;SDS011;30484;52.382;5.260;2022-10-26T01:41:24;13.48;;;8.52;;
44764;SDS011;30484;52.382;5.260;2022-10-26T01:43:58;16.05;;;9.07;;
44764;SDS011;30484;52.382;5.260;2022-10-26T01:46:35;13.73;;;8.10;;
44764;SDS011;30484;52.382;5.260;2022-10-26T01:49:09;17.90;;;8.57;;
44764;SDS011;30484;52.382;5.260;2022-10-26T01:51:43;16.95;;;9.10;;
44764;SDS011;30484;52.382;5.260;2022-10-26T01:54:15;15.60;;;7.72;;
44764;SDS011;30484;52.382;5.260;2022-10-26T01:56:45;23.33;;;8.95;;
44764;SDS011;30484;52.382;5.260;2022-10-26T01:59:20;15.18;;;7.60;;
44764;SDS011;30484;52.382;5.260;2022-10-26T02:05:19;17.02;;;8.35;;
44764;SDS011;30484;52.382;5.260;2022-10-26T02:08:02;17.17;;;7.80;;
44764;SDS011;30484;52.382;5.260;2022-10-26T02:10:51;19.98;;;7.68;;
44764;SDS011;30484;52.382;5.260;2022-10-26T02:13:40;21.08;;;8.13;;
44764;SDS011;30484;52.382;5.260;2022-10-26T02:18:51;15.35;;;7.57;;
44764;SDS011;30484;52.382;5.260;2022-10-26T02:21:32;18.42;;;8.13;;
44764;SDS011;30484;52.382;5.260;2022-10-26T02:24:06;19.02;;;7.88;;
44764;SDS011;30484;52.382;5.260;2022-10-26T02:26:39;17.73;;;7.93;;
44764;SDS011;30484;52.382;5.260;2022-10-26T02:29:12;20.05;;;8.40;;
44764;SDS011;30484;52.382;5.260;2022-10-26T02:31:47;20.83;;;8.93;;
44764;SDS011;30484;52.382;5.260;2022-10-26T02:34:20;18.90;;;8.13;;
44764;SDS011;30484;52.382;5.260;2022-10-26T02:36:54;14.07;;;8.13;;
44764;SDS011;30484;52.382;5.260;2022-10-26T02:39:28;16.65;;;8.80;;
44764;SDS011;30484;52.382;5.260;2022-10-26T02:42:00;16.98;;;8.43;;
44764;SDS011;30484;52.382;5.260;2022-10-26T02:44:34;14.05;;;7.78;;
44764;SDS011;30484;52.382;5.260;2022-10-26T02:47:10;15.75;;;8.40;;
44764;SDS011;30484;52.382;5.260;2022-10-26T02:49:42;21.00;;;8.38;;
44764;SDS011;30484;52.382;5.260;2022-10-26T02:52:18;17.90;;;9.15;;
44764;SDS011;30484;52.382;5.260;2022-10-26T02:54:55;20.42;;;8.68;;
44764;SDS011;30484;52.382;5.260;2022-10-26T02:57:32;18.20;;;8.35;;
44764;SDS011;30484;52.382;5.260;2022-10-26T03:00:06;19.17;;;8.45;;
44764;SDS011;30484;52.382;5.260;2022-10-26T03:02:37;16.30;;;8.05;;
44764;SDS011;30484;52.382;5.260;2022-10-26T03:05:14;23.42;;;8.55;;
44764;SDS011;30484;52.382;5.260;2022-10-26T03:07:47;15.93;;;8.48;;
44764;SDS011;30484;52.382;5.260;2022-10-26T03:10:16;17.30;;;7.97;;
44764;SDS011;30484;52.382;5.260;2022-10-26T03:12:45;19.85;;;8.38;;
44764;SDS011;30484;52.382;5.260;2022-10-26T03:15:14;16.42;;;7.20;;
44764;SDS011;30484;52.382;5.260;2022-10-26T03:17:43;19.50;;;8.63;;
44764;SDS011;30484;52.382;5.260;2022-10-26T03:20:16;18.17;;;8.38;;
44764;SDS011;30484;52.382;5.260;2022-10-26T03:22:45;16.60;;;7.35;;
44764;SDS011;30484;52.382;5.260;2022-10-26T03:25:18;15.60;;;7.97;;
44764;SDS011;30484;52.382;5.260;2022-10-26T03:27:54;16.70;;;8.27;;
44764;SDS011;30484;52.382;5.260;2022-10-26T03:32:55;14.98;;;8.38;;
44764;SDS011;30484;52.382;5.260;2022-10-26T03:35:27;20.08;;;8.05;;
44764;SDS011;30484;52.382;5.260;2022-10-26T03:37:56;16.13;;;8.23;;
44764;SDS011;30484;52.382;5.260;2022-10-26T03:40:24;19.10;;;8.05;;
44764;SDS011;30484;52.382;5.260;2022-10-26T03:42:53;18.83;;;8.35;;
44764;SDS011;30484;52.382;5.260;2022-10-26T03:45:22;12.82;;;7.80;;
44764;SDS011;30484;52.382;5.260;2022-10-26T03:47:51;20.23;;;7.70;;
44764;SDS011;30484;52.382;5.260;2022-10-26T03:50:20;19.98;;;8.65;;
44764;SDS011;30484;52.382;5.260;2022-10-26T03:52:53;21.85;;;8.48;;
44764;SDS011;30484;52.382;5.260;2022-10-26T03:55:22;21.23;;;7.93;;
44764;SDS011;30484;52.382;5.260;2022-10-26T03:57:51;15.98;;;7.65;;
44764;SDS011;30484;52.382;5.260;2022-10-26T04:00:20;17.30;;;7.75;;
44764;SDS011;30484;52.382;5.260;2022-10-26T04:02:53;16.02;;;7.38;;
44764;SDS011;30484;52.382;5.260;2022-10-26T04:05:25;21.23;;;7.90;;
44764;SDS011;30484;52.382;5.260;2022-10-26T04:07:59;23.65;;;7.57;;
44764;SDS011;30484;52.382;5.260;2022-10-26T04:10:30;22.67;;;7.70;;
44764;SDS011;30484;52.382;5.260;2022-10-26T04:12:59;17.60;;;7.03;;
44764;SDS011;30484;52.382;5.260;2022-10-26T04:15:28;18.17;;;7.88;;
44764;SDS011;30484;52.382;5.260;2022-10-26T04:18:01;18.50;;;6.85;;
44764;SDS011;30484;52.382;5.260;2022-10-26T04:20:31;21.30;;;6.80;;
44764;SDS011;30484;52.382;5.260;2022-10-26T04:23:06;15.27;;;6.75;;
44764;SDS011;30484;52.382;5.260;2022-10-26T04:25:40;18.42;;;6.75;;
44764;SDS011;30484;52.382;5.260;2022-10-26T04:28:12;19.55;;;6.68;;
44764;SDS011;30484;52.382;5.260;2022-10-26T04:30:46;18.25;;;6.63;;
44764;SDS011;30484;52.382;5.260;2022-10-26T04:33:15;13.50;;;6.40;;
44764;SDS011;30484;52.382;5.260;2022-10-26T04:35:43;13.40;;;6.07;;
44764;SDS011;30484;52.382;5.260;2022-10-26T04:38:14;12.73;;;6.00;;
44764;SDS011;30484;52.382;5.260;2022-10-26T04:40:43;18.77;;;6.80;;
44764;SDS011;30484;52.382;5.260;2022-10-26T04:43:12;14.95;;;7.00;;
44764;SDS011;30484;52.382;5.260;2022-10-26T04:45:41;16.02;;;6.85;;
44764;SDS011;30484;52.382;5.260;2022-10-26T04:48:12;13.48;;;5.90;;
44764;SDS011;30484;52.382;5.260;2022-10-26T04:50:41;16.45;;;6.00;;
44764;SDS011;30484;52.382;5.260;2022-10-26T04:53:09;18.42;;;6.15;;
44764;SDS011;30484;52.382;5.260;2022-10-26T04:55:43;14.13;;;6.20;;
44764;SDS011;30484;52.382;5.260;2022-10-26T04:58:13;17.98;;;6.18;;
44764;SDS011;30484;52.382;5.260;2022-10-26T05:00:42;15.90;;;5.55;;
44764;SDS011;30484;52.382;5.260;2022-10-26T05:03:12;16.35;;;6.32;;
44764;SDS011;30484;52.382;5.260;2022-10-26T05:05:41;14.27;;;5.47;;
44764;SDS011;30484;52.382;5.260;2022-10-26T05:08:09;12.75;;;5.50;;
44764;SDS011;30484;52.382;5.260;2022-10-26T05:10:46;13.50;;;6.25;;
44764;SDS011;30484;52.382;5.260;2022-10-26T05:13:18;13.77;;;5.75;;
44764;SDS011;30484;52.382;5.260;2022-10-26T05:15:51;17.63;;;7.15;;
44764;SDS011;30484;52.382;5.260;2022-10-26T05:18:19;18.70;;;5.70;;
44764;SDS011;30484;52.382;5.260;2022-10-26T05:20:52;14.65;;;6.05;;
44764;SDS011;30484;52.382;5.260;2022-10-26T05:23:22;16.58;;;7.28;;
44764;SDS011;30484;52.382;5.260;2022-10-26T05:25:53;17.58;;;5.72;;
44764;SDS011;30484;52.382;5.260;2022-10-26T05:28:22;12.40;;;5.50;;
44764;SDS011;30484;52.382;5.260;2022-10-26T05:30:54;15.27;;;5.43;;
44764;SDS011;30484;52.382;5.260;2022-10-26T05:33:26;12.10;;;5.60;;
44764;SDS011;30484;52.382;5.260;2022-10-26T05:35:54;15.20;;;6.10;;
44764;SDS011;30484;52.382;5.260;2022-10-26T05:38:23;16.67;;;5.75;;
44764;SDS011;30484;52.382;5.260;2022-10-26T05:40:54;12.20;;;5.97;;
44764;SDS011;30484;52.382;5.260;2022-10-26T05:43:24;15.07;;;5.38;;
44764;SDS011;30484;52.382;5.260;2022-10-26T05:45:54;12.85;;;5.93;;
44764;SDS011;30484;52.382;5.260;2022-10-26T05:48:30;14.20;;;6.63;;
44764;SDS011;30484;52.382;5.260;2022-10-26T05:51:00;18.05;;;6.45;;
44764;SDS011;30484;52.382;5.260;2022-10-26T05:53:32;20.02;;;6.30;;
44764;SDS011;30484;52.382;5.260;2022-10-26T05:56:03;13.48;;;5.85;;
44764;SDS011;30484;52.382;5.260;2022-10-26T05:58:46;13.32;;;6.57;;
44764;SDS011;30484;52.382;5.260;2022-10-26T06:01:20;12.43;;;6.10;;
44764;SDS011;30484;52.382;5.260;2022-10-26T06:04:01;22.65;;;7.10;;
44764;SDS011;30484;52.382;5.260;2022-10-26T06:06:46;18.60;;;6.50;;
44764;SDS011;30484;52.382;5.260;2022-10-26T06:09:20;19.40;;;6.97;;
44764;SDS011;30484;52.382;5.260;2022-10-26T06:11:56;19.10;;;7.35;;
44764;SDS011;30484;52.382;5.260;2022-10-26T06:14:27;16.80;;;6.88;;
44764;SDS011;30484;52.382;5.260;2022-10-26T06:17:03;19.15;;;6.95;;
44764;SDS011;30484;52.382;5.260;2022-10-26T06:19:54;17.25;;;6.82;;
44764;SDS011;30484;52.382;5.260;2022-10-26T06:22:46;16.00;;;6.90;;
44764;SDS011;30484;52.382;5.260;2022-10-26T06:25:34;15.13;;;6.45;;
44764;SDS011;30484;52.382;5.260;2022-10-26T06:28:18;24.08;;;7.82;;
44764;SDS011;30484;52.382;5.260;2022-10-26T06:31:00;18.88;;;8.57;;
44764;SDS011;30484;52.382;5.260;2022-10-26T06:33:29;16.50;;;7.07;;
44764;SDS011;30484;52.382;5.260;2022-10-26T06:36:02;21.75;;;7.18;;
44764;SDS011;30484;52.382;5.260;2022-10-26T06:38:45;19.52;;;6.85;;
44764;SDS011;30484;52.382;5.260;2022-10-26T06:41:15;15.30;;;6.85;;
44764;SDS011;30484;52.382;5.260;2022-10-26T06:43:51;20.60;;;7.70;;
44764;SDS011;30484;52.382;5.260;2022-10-26T06:46:23;16.75;;;6.32;;
44764;SDS011;30484;52.382;5.260;2022-10-26T06:49:17;19.35;;;6.70;;
44764;SDS011;30484;52.382;5.260;2022-10-26T06:51:55;16.85;;;6.57;;
44764;SDS011;30484;52.382;5.260;2022-10-26T06:54:34;21.73;;;6.85;;
44764;SDS011;30484;52.382;5.260;2022-10-26T06:57:17;11.27;;;6.13;;
44764;SDS011;30484;52.382;5.260;2022-10-26T06:59:55;19.20;;;6.82;;
44764;SDS011;30484;52.382;5.260;2022-10-26T07:02:28;14.43;;;6.43;;
44764;SDS011;30484;52.382;5.260;2022-10-26T07:04:58;16.00;;;6.43;;
44764;SDS011;30484;52.382;5.260;2022-10-26T07:07:28;14.95;;;6.00;;
44764;SDS011;30484;52.382;5.260;2022-10-26T07:10:08;15.50;;;6.65;;
44764;SDS011;30484;52.382;5.260;2022-10-26T07:12:38;22.15;;;6.43;;
44764;SDS011;30484;52.382;5.260;2022-10-26T07:15:09;14.25;;;6.60;;
44764;SDS011;30484;52.382;5.260;2022-10-26T07:17:41;20.27;;;6.60;;
44764;SDS011;30484;52.382;5.260;2022-10-26T07:20:11;17.08;;;6.85;;
44764;SDS011;30484;52.382;5.260;2022-10-26T07:22:41;22.52;;;6.75;;
44764;SDS011;30484;52.382;5.260;2022-10-26T07:25:11;21.67;;;6.18;;
44764;SDS011;30484;52.382;5.260;2022-10-26T07:27:40;15.52;;;6.18;;
44764;SDS011;30484;52.382;5.260;2022-10-26T07:30:11;15.50;;;6.47;;
44764;SDS011;30484;52.382;5.260;2022-10-26T07:32:40;14.15;;;6.70;;
44764;SDS011;30484;52.382;5.260;2022-10-26T07:35:09;18.02;;;6.13;;
44764;SDS011;30484;52.382;5.260;2022-10-26T07:37:39;13.55;;;6.35;;
44764;SDS011;30484;52.382;5.260;2022-10-26T07:40:08;13.27;;;6.10;;
44764;SDS011;30484;52.382;5.260;2022-10-26T07:42:38;19.30;;;6.43;;
44764;SDS011;30484;52.382;5.260;2022-10-26T07:45:14;12.10;;;6.00;;
44764;SDS011;30484;52.382;5.260;2022-10-26T07:47:43;12.18;;;5.32;;
44764;SDS011;30484;52.382;5.260;2022-10-26T07:50:13;15.82;;;6.15;;
44764;SDS011;30484;52.382;5.260;2022-10-26T07:52:50;16.90;;;5.88;;
44764;SDS011;30484;52.382;5.260;2022-10-26T07:55:21;16.45;;;5.57;;
44764;SDS011;30484;52.382;5.260;2022-10-26T07:57:53;16.30;;;5.90;;
44764;SDS011;30484;52.382;5.260;2022-10-26T08:00:24;11.88;;;5.20;;
44764;SDS011;30484;52.382;5.260;2022-10-26T08:02:55;11.85;;;4.88;;
44764;SDS011;30484;52.382;5.260;2022-10-26T08:05:25;13.10;;;5.10;;
44764;SDS011;30484;52.382;5.260;2022-10-26T08:07:57;13.18;;;5.15;;
44764;SDS011;30484;52.382;5.260;2022-10-26T08:10:25;14.65;;;4.75;;
44764;SDS011;30484;52.382;5.260;2022-10-26T08:12:58;10.55;;;5.05;;
44764;SDS011;30484;52.382;5.260;2022-10-26T08:15:28;13.98;;;5.10;;
44764;SDS011;30484;52.382;5.260;2022-10-26T08:17:58;10.02;;;4.40;;
44764;SDS011;30484;52.382;5.260;2022-10-26T08:20:26;9.68;;;4.40;;
44764;SDS011;30484;52.382;5.260;2022-10-26T08:22:56;13.85;;;4.50;;
44764;SDS011;30484;52.382;5.260;2022-10-26T08:25:27;11.63;;;4.53;;
44764;SDS011;30484;52.382;5.260;2022-10-26T08:27:59;12.75;;;4.35;;
44764;SDS011;30484;52.382;5.260;2022-10-26T08:30:33;9.65;;;4.07;;
44764;SDS011;30484;52.382;5.260;2022-10-26T08:33:04;7.90;;;4.28;;
44764;SDS011;30484;52.382;5.260;2022-10-26T08:35:34;15.32;;;4.03;;
44764;SDS011;30484;52.382;5.260;2022-10-26T08:38:03;10.20;;;3.92;;
44764;SDS011;30484;52.382;5.260;2022-10-26T08:40:34;15.77;;;4.45;;
44764;SDS011;30484;52.382;5.260;2022-10-26T08:43:11;17.15;;;4.97;;
44764;SDS011;30484;52.382;5.260;2022-10-26T08:45:51;11.15;;;4.30;;
44764;SDS011;30484;52.382;5.260;2022-10-26T08:48:28;12.80;;;4.25;;
44764;SDS011;30484;52.382;5.260;2022-10-26T08:51:05;14.10;;;5.05;;
44764;SDS011;30484;52.382;5.260;2022-10-26T08:53:40;9.43;;;4.32;;
44764;SDS011;30484;52.382;5.260;2022-10-26T08:56:16;9.63;;;3.97;;
44764;SDS011;30484;52.382;5.260;2022-10-26T08:58:50;13.07;;;4.28;;
44764;SDS011;30484;52.382;5.260;2022-10-26T09:01:25;15.35;;;4.70;;
44764;SDS011;30484;52.382;5.260;2022-10-26T09:03:57;16.60;;;4.30;;
44764;SDS011;30484;52.382;5.260;2022-10-26T09:06:30;10.85;;;3.72;;
44764;SDS011;30484;52.382;5.260;2022-10-26T09:09:07;11.93;;;3.53;;
44764;SDS011;30484;52.382;5.260;2022-10-26T09:11:50;10.18;;;3.55;;
44764;SDS011;30484;52.382;5.260;2022-10-26T09:14:29;7.60;;;3.47;;
44764;SDS011;30484;52.382;5.260;2022-10-26T09:17:12;9.80;;;2.85;;
44764;SDS011;30484;52.382;5.260;2022-10-26T09:19:56;8.50;;;3.17;;
44764;SDS011;30484;52.382;5.260;2022-10-26T09:23:00;15.25;;;4.05;;
44764;SDS011;30484;52.382;5.260;2022-10-26T09:25:37;9.05;;;3.00;;
44764;SDS011;30484;52.382;5.260;2022-10-26T09:28:12;10.68;;;3.33;;
44764;SDS011;30484;52.382;5.260;2022-10-26T09:30:44;6.97;;;2.72;;
44764;SDS011;30484;52.382;5.260;2022-10-26T09:33:16;6.88;;;2.88;;
44764;SDS011;30484;52.382;5.260;2022-10-26T09:38:27;10.38;;;2.78;;
44764;SDS011;30484;52.382;5.260;2022-10-26T09:40:58;7.55;;;2.80;;
44764;SDS011;30484;52.382;5.260;2022-10-26T09:43:32;7.25;;;2.95;;
44764;SDS011;30484;52.382;5.260;2022-10-26T09:46:08;9.35;;;3.00;;
44764;SDS011;30484;52.382;5.260;2022-10-26T09:48:48;9.38;;;2.63;;
44764;SDS011;30484;52.382;5.260;2022-10-26T09:51:23;7.88;;;2.72;;
44764;SDS011;30484;52.382;5.260;2022-10-26T09:53:52;10.20;;;3.13;;
44764;SDS011;30484;52.382;5.260;2022-10-26T09:56:23;9.48;;;3.08;;
44764;SDS011;30484;52.382;5.260;2022-10-26T09:58:55;12.20;;;2.72;;
44764;SDS011;30484;52.382;5.260;2022-10-26T10:01:30;10.30;;;2.87;;
44764;SDS011;30484;52.382;5.260;2022-10-26T10:04:15;9.90;;;3.03;;
44764;SDS011;30484;52.382;5.260;2022-10-26T10:06:49;9.27;;;2.67;;
44764;SDS011;30484;52.382;5.260;2022-10-26T10:09:21;7.68;;;2.80;;
44764;SDS011;30484;52.382;5.260;2022-10-26T10:11:53;11.82;;;2.90;;
44764;SDS011;30484;52.382;5.260;2022-10-26T10:14:28;8.43;;;2.78;;
44764;SDS011;30484;52.382;5.260;2022-10-26T10:17:04;7.75;;;3.05;;
44764;SDS011;30484;52.382;5.260;2022-10-26T10:19:45;6.53;;;3.50;;
44764;SDS011;30484;52.382;5.260;2022-10-26T10:22:30;9.55;;;2.53;;
44764;SDS011;30484;52.382;5.260;2022-10-26T10:25:20;8.80;;;2.90;;
44764;SDS011;30484;52.382;5.260;2022-10-26T10:28:00;7.25;;;2.50;;
44764;SDS011;30484;52.382;5.260;2022-10-26T10:30:31;8.43;;;2.97;;
44764;SDS011;30484;52.382;5.260;2022-10-26T10:33:09;12.40;;;3.03;;
44764;SDS011;30484;52.382;5.260;2022-10-26T10:35:59;12.68;;;3.17;;
44764;SDS011;30484;52.382;5.260;2022-10-26T10:38:29;12.10;;;2.83;;
44764;SDS011;30484;52.382;5.260;2022-10-26T10:41:04;12.25;;;3.38;;
44764;SDS011;30484;52.382;5.260;2022-10-26T10:43:48;12.48;;;2.75;;
44764;SDS011;30484;52.382;5.260;2022-10-26T10:46:25;7.68;;;2.80;;
44764;SDS011;30484;52.382;5.260;2022-10-26T10:49:00;12.30;;;3.30;;
44764;SDS011;30484;52.382;5.260;2022-10-26T10:51:35;8.95;;;2.78;;
44764;SDS011;30484;52.382;5.260;2022-10-26T10:54:14;11.45;;;3.42;;
44764;SDS011;30484;52.382;5.260;2022-10-26T10:56:50;14.00;;;3.22;;
44764;SDS011;30484;52.382;5.260;2022-10-26T10:59:46;13.52;;;3.35;;
44764;SDS011;30484;52.382;5.260;2022-10-26T11:02:46;7.72;;;2.75;;
44764;SDS011;30484;52.382;5.260;2022-10-26T11:05:42;8.25;;;3.25;;
44764;SDS011;30484;52.382;5.260;2022-10-26T11:08:48;11.73;;;3.15;;
44764;SDS011;30484;52.382;5.260;2022-10-26T11:11:37;12.23;;;4.30;;
44764;SDS011;30484;52.382;5.260;2022-10-26T11:14:14;7.55;;;3.72;;
44764;SDS011;30484;52.382;5.260;2022-10-26T11:16:53;10.90;;;3.80;;
44764;SDS011;30484;52.382;5.260;2022-10-26T11:19:32;11.35;;;4.30;;
44764;SDS011;30484;52.382;5.260;2022-10-26T11:22:18;14.32;;;4.45;;
44764;SDS011;30484;52.382;5.260;2022-10-26T11:25:04;12.55;;;3.72;;
44764;SDS011;30484;52.382;5.260;2022-10-26T11:27:45;9.85;;;4.32;;
44764;SDS011;30484;52.382;5.260;2022-10-26T11:30:20;9.10;;;4.00;;
44764;SDS011;30484;52.382;5.260;2022-10-26T11:32:59;10.90;;;3.88;;
44764;SDS011;30484;52.382;5.260;2022-10-26T11:35:39;17.83;;;4.47;;
44764;SDS011;30484;52.382;5.260;2022-10-26T11:38:23;8.23;;;3.72;;
44764;SDS011;30484;52.382;5.260;2022-10-26T11:41:32;12.48;;;4.13;;
44764;SDS011;30484;52.382;5.260;2022-10-26T11:44:12;12.75;;;3.80;;
44764;SDS011;30484;52.382;5.260;2022-10-26T11:46:51;8.68;;;4.43;;
44764;SDS011;30484;52.382;5.260;2022-10-26T11:49:28;12.98;;;3.90;;
44764;SDS011;30484;52.382;5.260;2022-10-26T11:52:08;11.00;;;2.97;;
44764;SDS011;30484;52.382;5.260;2022-10-26T11:55:07;11.80;;;3.33;;
44764;SDS011;30484;52.382;5.260;2022-10-26T11:57:41;12.52;;;3.60;;
44764;SDS011;30484;52.382;5.260;2022-10-26T12:00:15;12.80;;;3.90;;
44764;SDS011;30484;52.382;5.260;2022-10-26T12:02:48;9.10;;;3.03;;
44764;SDS011;30484;52.382;5.260;2022-10-26T12:05:31;14.43;;;4.75;;
44764;SDS011;30484;52.382;5.260;2022-10-26T12:08:13;11.90;;;4.07;;
44764;SDS011;30484;52.382;5.260;2022-10-26T12:10:47;10.38;;;3.53;;
44764;SDS011;30484;52.382;5.260;2022-10-26T12:13:26;12.50;;;4.13;;
44764;SDS011;30484;52.382;5.260;2022-10-26T12:16:03;6.43;;;3.75;;
44764;SDS011;30484;52.382;5.260;2022-10-26T12:19:03;15.77;;;4.30;;
44764;SDS011;30484;52.382;5.260;2022-10-26T12:21:41;13.90;;;3.92;;
44764;SDS011;30484;52.382;5.260;2022-10-26T12:24:24;14.80;;;3.72;;
44764;SDS011;30484;52.382;5.260;2022-10-26T12:27:00;8.02;;;3.33;;
44764;SDS011;30484;52.382;5.260;2022-10-26T12:29:34;8.82;;;3.28;;
44764;SDS011;30484;52.382;5.260;2022-10-26T12:35:39;13.43;;;3.90;;
44764;SDS011;30484;52.382;5.260;2022-10-26T12:38:35;10.93;;;4.88;;
44764;SDS011;30484;52.382;5.260;2022-10-26T12:41:26;9.65;;;3.60;;
44764;SDS011;30484;52.382;5.260;2022-10-26T12:47:05;9.23;;;3.00;;
44764;SDS011;30484;52.382;5.260;2022-10-26T12:52:29;13.80;;;3.03;;
44764;SDS011;30484;52.382;5.260;2022-10-26T12:59:07;9.15;;;2.90;;
44764;SDS011;30484;52.382;5.260;2022-10-26T13:05:48;9.20;;;2.80;;
44764;SDS011;30484;52.382;5.260;2022-10-26T13:08:47;8.98;;;3.08;;
44764;SDS011;30484;52.382;5.260;2022-10-26T13:11:27;10.35;;;2.63;;
44764;SDS011;30484;52.382;5.260;2022-10-26T13:13:59;10.23;;;3.17;;
44764;SDS011;30484;52.382;5.260;2022-10-26T13:16:32;8.77;;;3.03;;
44764;SDS011;30484;52.382;5.260;2022-10-26T13:19:03;11.85;;;2.85;;
44764;SDS011;30484;52.382;5.260;2022-10-26T13:21:34;13.98;;;3.80;;
44764;SDS011;30484;52.382;5.260;2022-10-26T13:24:14;10.57;;;3.55;;
44764;SDS011;30484;52.382;5.260;2022-10-26T13:36:10;7.65;;;2.10;;
44764;SDS011;30484;52.382;5.260;2022-10-26T13:38:57;8.25;;;2.35;;
44764;SDS011;30484;52.382;5.260;2022-10-26T13:41:35;9.95;;;2.92;;
44764;SDS011;30484;52.382;5.260;2022-10-26T13:44:16;8.98;;;2.50;;
44764;SDS011;30484;52.382;5.260;2022-10-26T13:46:53;6.13;;;1.90;;
44764;SDS011;30484;52.382;5.260;2022-10-26T13:49:27;6.65;;;2.05;;
44764;SDS011;30484;52.382;5.260;2022-10-26T13:52:04;9.75;;;2.85;;
44764;SDS011;30484;52.382;5.260;2022-10-26T13:54:43;11.68;;;2.85;;
44764;SDS011;30484;52.382;5.260;2022-10-26T13:57:18;11.40;;;2.78;;
44764;SDS011;30484;52.382;5.260;2022-10-26T13:59:56;9.23;;;2.45;;
44764;SDS011;30484;52.382;5.260;2022-10-26T14:02:29;8.30;;;2.20;;
44764;SDS011;30484;52.382;5.260;2022-10-26T14:05:13;12.90;;;2.50;;
44764;SDS011;30484;52.382;5.260;2022-10-26T14:07:48;7.05;;;2.08;;
44764;SDS011;30484;52.382;5.260;2022-10-26T14:10:24;14.18;;;2.40;;
44764;SDS011;30484;52.382;5.260;2022-10-26T14:12:57;10.57;;;2.67;;
44764;SDS011;30484;52.382;5.260;2022-10-26T14:15:29;9.52;;;2.20;;
44764;SDS011;30484;52.382;5.260;2022-10-26T14:18:02;8.05;;;2.63;;
44764;SDS011;30484;52.382;5.260;2022-10-26T14:20:32;14.38;;;2.60;;
44764;SDS011;30484;52.382;5.260;2022-10-26T14:23:03;8.18;;;2.30;;
44764;SDS011;30484;52.382;5.260;2022-10-26T14:25:53;8.18;;;2.33;;
44764;SDS011;30484;52.382;5.260;2022-10-26T14:28:25;9.65;;;2.58;;
44764;SDS011;30484;52.382;5.260;2022-10-26T14:31:11;8.15;;;2.10;;
44764;SDS011;30484;52.382;5.260;2022-10-26T14:33:49;10.00;;;2.65;;
44764;SDS011;30484;52.382;5.260;2022-10-26T14:36:21;12.85;;;3.13;;
44764;SDS011;30484;52.382;5.260;2022-10-26T14:39:01;11.90;;;2.50;;
44764;SDS011;30484;52.382;5.260;2022-10-26T14:41:35;13.10;;;2.40;;
44764;SDS011;30484;52.382;5.260;2022-10-26T14:44:08;9.13;;;2.33;;
44764;SDS011;30484;52.382;5.260;2022-10-26T14:46:45;12.63;;;2.30;;
44764;SDS011;30484;52.382;5.260;2022-10-26T14:49:17;10.32;;;2.50;;
44764;SDS011;30484;52.382;5.260;2022-10-26T14:51:49;9.77;;;2.28;;
44764;SDS011;30484;52.382;5.260;2022-10-26T14:54:27;11.75;;;3.15;;
44764;SDS011;30484;52.382;5.260;2022-10-26T14:56:57;12.23;;;2.72;;
44764;SDS011;30484;52.382;5.260;2022-10-26T14:59:29;15.13;;;4.55;;
44764;SDS011;30484;52.382;5.260;2022-10-26T15:02:14;9.82;;;2.17;;
44764;SDS011;30484;52.382;5.260;2022-10-26T15:04:55;10.07;;;2.10;;
44764;SDS011;30484;52.382;5.260;2022-10-26T15:07:34;12.75;;;2.45;;
44764;SDS011;30484;52.382;5.260;2022-10-26T15:13:19;12.32;;;2.30;;
44764;SDS011;30484;52.382;5.260;2022-10-26T15:15:56;8.40;;;2.33;;
44764;SDS011;30484;52.382;5.260;2022-10-26T15:18:35;7.50;;;2.28;;
44764;SDS011;30484;52.382;5.260;2022-10-26T15:21:15;9.70;;;2.40;;
44764;SDS011;30484;52.382;5.260;2022-10-26T15:23:50;9.10;;;2.33;;
44764;SDS011;30484;52.382;5.260;2022-10-26T15:26:22;14.23;;;2.60;;
44764;SDS011;30484;52.382;5.260;2022-10-26T15:28:52;11.00;;;2.47;;
44764;SDS011;30484;52.382;5.260;2022-10-26T15:31:29;8.30;;;1.95;;
44764;SDS011;30484;52.382;5.260;2022-10-26T15:36:51;10.07;;;2.30;;
44764;SDS011;30484;52.382;5.260;2022-10-26T15:39:21;12.02;;;2.20;;
44764;SDS011;30484;52.382;5.260;2022-10-26T15:41:52;14.98;;;2.38;;
44764;SDS011;30484;52.382;5.260;2022-10-26T15:44:23;10.93;;;2.03;;
44764;SDS011;30484;52.382;5.260;2022-10-26T15:46:53;9.45;;;2.33;;
44764;SDS011;30484;52.382;5.260;2022-10-26T15:49:34;7.63;;;1.80;;
44764;SDS011;30484;52.382;5.260;2022-10-26T15:52:04;18.33;;;2.20;;
44764;SDS011;30484;52.382;5.260;2022-10-26T15:54:36;6.80;;;2.13;;
44764;SDS011;30484;52.382;5.260;2022-10-26T15:57:08;10.57;;;2.80;;
44764;SDS011;30484;52.382;5.260;2022-10-26T15:59:45;10.55;;;2.50;;
44764;SDS011;30484;52.382;5.260;2022-10-26T16:02:16;11.25;;;2.20;;
44764;SDS011;30484;52.382;5.260;2022-10-26T16:04:46;9.95;;;2.20;;
44764;SDS011;30484;52.382;5.260;2022-10-26T16:07:14;13.02;;;2.38;;
44764;SDS011;30484;52.382;5.260;2022-10-26T16:09:44;6.35;;;2.17;;
44764;SDS011;30484;52.382;5.260;2022-10-26T16:12:14;5.97;;;2.22;;
44764;SDS011;30484;52.382;5.260;2022-10-26T16:14:43;9.23;;;2.22;;
44764;SDS011;30484;52.382;5.260;2022-10-26T16:17:31;9.82;;;2.30;;